createdAt,value
2017-05-15T00:00:55.634Z,1.22
2017-05-15T00:03:21.497Z,1.70
2017-05-15T00:05:47.399Z,1.52
2017-05-15T00:08:13.370Z,1.48
2017-05-15T00:10:39.202Z,1.62
2017-05-15T00:13:05.047Z,1.80
2017-05-15T00:15:31.006Z,1.54
2017-05-15T00:17:56.837Z,1.60
2017-05-15T00:20:22.819Z,1.54
2017-05-15T00:22:48.614Z,1.50
2017-05-15T00:25:14.481Z,1.60
2017-05-15T00:27:40.388Z,1.40
2017-05-15T00:30:06.222Z,1.90
2017-05-15T00:32:32.143Z,1.76
2017-05-15T00:34:57.992Z,1.36
2017-05-15T00:37:23.828Z,1.76
2017-05-15T00:39:49.666Z,1.70
2017-05-15T00:42:15.538Z,1.70
2017-05-15T00:44:41.506Z,1.38
2017-05-15T00:47:07.397Z,1.62
2017-05-15T00:49:33.239Z,1.50
2017-05-15T00:51:59.115Z,1.86
2017-05-15T00:54:24.962Z,1.80
2017-05-15T00:56:50.921Z,1.62
2017-05-15T00:59:17.292Z,1.78
2017-05-15T01:01:43.168Z,1.70
2017-05-15T01:04:08.996Z,1.70
2017-05-15T01:06:34.900Z,1.64
2017-05-15T01:09:00.929Z,1.70
2017-05-15T01:11:26.777Z,1.90
2017-05-15T01:13:52.685Z,1.72
2017-05-15T01:16:18.593Z,1.58
2017-05-15T01:18:44.500Z,1.60
2017-05-15T01:21:10.450Z,1.60
2017-05-15T01:23:37.777Z,1.70
2017-05-15T01:26:03.621Z,1.50
2017-05-15T01:28:30.958Z,2.14
2017-05-15T01:30:56.828Z,1.60
2017-05-15T01:33:22.755Z,1.86
2017-05-15T01:35:48.662Z,1.66
2017-05-15T01:38:14.549Z,2.10
2017-05-15T01:40:40.397Z,1.70
2017-05-15T01:43:06.233Z,1.60
2017-05-15T01:45:32.199Z,1.76
2017-05-15T01:47:58.071Z,1.70
2017-05-15T01:50:24.691Z,1.60
2017-05-15T01:52:50.578Z,1.76
2017-05-15T01:55:16.424Z,1.48
2017-05-15T01:57:42.442Z,1.60
2017-05-15T02:00:08.320Z,1.54
2017-05-15T02:02:34.213Z,1.80
2017-05-15T02:05:00.013Z,2.16
2017-05-15T02:07:26.727Z,1.50
2017-05-15T02:09:52.688Z,2.00
2017-05-15T02:12:19.290Z,1.70
2017-05-15T02:14:45.126Z,1.56
2017-05-15T02:17:10.987Z,1.70
2017-05-15T02:19:36.830Z,1.96
2017-05-15T02:22:02.786Z,1.80
2017-05-15T02:24:28.672Z,1.62
2017-05-15T02:26:54.518Z,1.50
2017-05-15T02:29:20.385Z,1.60
2017-05-15T02:31:46.242Z,1.86
2017-05-15T02:34:12.175Z,1.60
2017-05-15T02:36:38.092Z,1.36
2017-05-15T02:39:03.935Z,1.48
2017-05-15T02:41:29.784Z,1.70
2017-05-15T02:43:55.666Z,1.62
2017-05-15T02:46:21.585Z,1.90
2017-05-15T02:48:47.434Z,1.62
2017-05-15T02:51:13.284Z,1.70
2017-05-15T02:53:39.117Z,1.60
2017-05-15T02:56:04.946Z,1.62
2017-05-15T02:58:30.899Z,1.92
2017-05-15T03:00:56.781Z,1.90
2017-05-15T03:03:22.667Z,1.92
2017-05-15T03:05:49.313Z,1.78
2017-05-15T03:08:15.325Z,1.76
2017-05-15T03:10:41.330Z,1.78
2017-05-15T03:13:07.142Z,2.20
2017-05-15T03:15:33.008Z,1.84
2017-05-15T03:17:58.913Z,1.96
2017-05-15T03:20:25.508Z,1.30
2017-05-15T03:22:51.438Z,2.02
2017-05-15T03:25:17.284Z,2.08
2017-05-15T03:27:43.899Z,1.60
2017-05-15T03:30:09.782Z,1.92
2017-05-15T03:32:35.639Z,1.82
2017-05-15T03:35:01.602Z,2.48
2017-05-15T03:37:27.469Z,1.72
2017-05-15T03:39:53.317Z,2.10
2017-05-15T03:42:19.174Z,1.78
2017-05-15T03:44:45.032Z,1.74
2017-05-15T03:47:11.018Z,1.96
2017-05-15T03:49:36.906Z,1.62
2017-05-15T03:52:03.520Z,1.72
2017-05-15T03:54:29.427Z,1.90
2017-05-15T03:56:55.209Z,1.70
2017-05-15T03:59:21.142Z,1.50
2017-05-15T04:01:46.981Z,1.82
2017-05-15T04:04:12.857Z,1.78
2017-05-15T04:06:39.450Z,2.10
2017-05-15T04:09:05.346Z,1.82
2017-05-15T04:11:31.251Z,2.08
2017-05-15T04:13:57.094Z,1.70
2017-05-15T04:16:22.982Z,2.36
2017-05-15T04:18:48.940Z,2.02
2017-05-15T04:21:15.554Z,2.42
2017-05-15T04:23:42.363Z,1.90
2017-05-15T04:26:08.197Z,2.38
2017-05-15T04:28:34.042Z,2.08
2017-05-15T04:31:00.024Z,1.80
2017-05-15T04:33:25.887Z,2.32
2017-05-15T04:35:51.812Z,2.32
2017-05-15T04:38:17.699Z,2.12
2017-05-15T04:40:43.574Z,2.50
2017-05-15T04:43:09.447Z,2.38
2017-05-15T04:45:35.290Z,2.20
2017-05-15T04:48:01.228Z,2.12
2017-05-15T04:50:27.067Z,2.12
2017-05-15T04:52:52.910Z,2.12
2017-05-15T04:55:18.926Z,2.24
2017-05-15T04:57:44.779Z,2.46
2017-05-15T05:00:11.439Z,2.50
2017-05-15T05:02:37.290Z,2.38
2017-05-15T05:05:03.215Z,2.08
2017-05-15T05:07:29.089Z,2.20
2017-05-15T05:09:54.974Z,2.16
2017-05-15T05:12:20.977Z,2.68
2017-05-15T05:14:46.810Z,2.20
2017-05-15T05:17:12.675Z,2.40
2017-05-15T05:22:33.447Z,2.40
2017-05-15T05:33:23.252Z,2.40
2017-05-15T05:36:02.143Z,2.46
2017-05-15T05:41:23.354Z,2.30
2017-05-15T05:46:21.739Z,2.30
2017-05-15T05:48:47.590Z,4.56
2017-05-15T05:51:13.450Z,4.82
2017-05-15T05:53:39.379Z,4.92
2017-05-15T05:56:23.932Z,4.30
2017-05-15T05:58:49.814Z,4.20
2017-05-15T06:04:21.407Z,3.92
2017-05-15T06:09:54.965Z,3.33
2017-05-15T06:12:39.826Z,2.60
2017-05-15T06:18:12.328Z,2.75
2017-05-15T06:20:38.186Z,3.38
2017-05-15T06:23:22.634Z,3.30
2017-05-15T06:26:07.109Z,3.32
2017-05-15T06:28:33.731Z,3.24
2017-05-15T06:30:59.541Z,3.14
2017-05-15T06:33:25.503Z,2.92
2017-05-15T06:35:51.501Z,3.06
2017-05-15T06:38:37.154Z,3.90
2017-05-15T06:41:21.558Z,3.28
2017-05-15T06:43:47.511Z,3.14
2017-05-15T06:46:13.366Z,2.96
2017-05-15T06:48:39.247Z,3.76
2017-05-15T06:51:05.102Z,3.60
2017-05-15T06:53:30.930Z,3.62
2017-05-15T06:55:56.878Z,3.22
2017-05-15T06:58:23.454Z,3.12
2017-05-15T07:00:49.305Z,3.20
2017-05-15T07:03:15.198Z,3.32
2017-05-15T07:05:41.057Z,2.98
2017-05-15T07:08:06.943Z,3.42
2017-05-15T07:10:32.813Z,3.48
2017-05-15T07:12:58.652Z,3.70
2017-05-15T07:15:24.507Z,3.12
2017-05-15T07:17:50.454Z,3.00
2017-05-15T07:20:16.314Z,3.24
2017-05-15T07:22:42.201Z,3.08
2017-05-15T07:27:42.575Z,3.60
2017-05-15T07:30:09.166Z,2.70
2017-05-15T07:32:35.002Z,2.66
2017-05-15T07:35:00.919Z,2.88
2017-05-15T07:37:26.881Z,3.60
2017-05-15T07:39:52.710Z,2.94
2017-05-15T07:42:18.563Z,3.24
2017-05-15T07:44:44.419Z,2.70
2017-05-15T07:47:10.306Z,2.58
2017-05-15T07:49:36.261Z,2.58
2017-05-15T07:52:02.109Z,2.88
2017-05-15T07:54:27.974Z,2.80
2017-05-15T07:56:53.825Z,2.70
2017-05-15T07:59:19.675Z,2.30
2017-05-15T08:01:45.615Z,2.10
2017-05-15T08:04:11.462Z,2.56
2017-05-15T08:06:37.337Z,2.54
2017-05-15T08:09:03.203Z,2.22
2017-05-15T08:11:29.090Z,2.10
2017-05-15T08:13:55.037Z,2.48
2017-05-15T08:16:20.887Z,2.30
2017-05-15T08:18:46.750Z,2.66
2017-05-15T08:21:12.609Z,2.00
2017-05-15T08:23:38.462Z,2.00
2017-05-15T08:26:04.410Z,2.20
2017-05-15T08:28:30.258Z,2.66
2017-05-15T08:30:56.147Z,1.92
2017-05-15T08:33:22.000Z,1.86
2017-05-15T08:35:47.882Z,2.20
2017-05-15T08:38:13.814Z,1.60
2017-05-15T08:40:39.667Z,1.80
2017-05-15T08:43:05.646Z,1.92
2017-05-15T08:45:31.546Z,1.90
2017-05-15T08:47:58.176Z,1.74
2017-05-15T08:50:24.094Z,2.34
2017-05-15T08:52:50.687Z,2.32
2017-05-15T08:55:16.570Z,2.22
2017-05-15T08:57:43.170Z,1.72
2017-05-15T09:00:09.006Z,1.56
2017-05-15T09:02:34.944Z,1.54
2017-05-15T09:05:00.808Z,1.56
2017-05-15T09:07:26.659Z,1.50
2017-05-15T09:09:52.531Z,2.06
2017-05-15T09:12:18.390Z,1.90
2017-05-15T09:14:44.413Z,1.72
2017-05-15T09:17:10.245Z,1.92
2017-05-15T09:19:36.154Z,1.40
2017-05-15T09:22:01.986Z,1.92
2017-05-15T09:24:27.831Z,1.72
2017-05-15T09:26:53.998Z,1.98
2017-05-15T09:29:19.846Z,1.30
2017-05-15T09:31:45.677Z,1.38
2017-05-15T09:34:11.553Z,1.78
2017-05-15T09:36:37.418Z,1.28
2017-05-15T09:39:03.352Z,1.54
2017-05-15T09:41:29.247Z,1.16
2017-05-15T09:43:55.090Z,1.58
2017-05-15T09:46:20.929Z,1.46
2017-05-15T09:48:46.782Z,1.58
2017-05-15T09:51:12.735Z,1.32
2017-05-15T09:53:38.621Z,1.50
2017-05-15T09:56:04.467Z,1.60
2017-05-15T09:58:30.331Z,1.64
2017-05-15T10:00:56.189Z,1.10
2017-05-15T10:03:22.119Z,1.50
2017-05-15T10:05:47.958Z,1.50
2017-05-15T10:08:13.814Z,1.24
2017-05-15T10:10:39.689Z,1.40
2017-05-15T10:13:05.535Z,1.64
2017-05-15T10:15:31.471Z,1.28
2017-05-15T10:17:57.314Z,1.10
2017-05-15T10:20:23.173Z,1.70
2017-05-15T10:22:49.033Z,1.46
2017-05-15T10:25:14.885Z,1.50
2017-05-15T10:27:40.865Z,1.74
2017-05-15T10:30:06.736Z,1.34
2017-05-15T10:32:32.576Z,1.40
2017-05-15T10:34:58.435Z,1.36
2017-05-15T10:37:24.273Z,1.50
2017-05-15T10:39:50.275Z,1.34
2017-05-15T10:42:16.083Z,1.24
2017-05-15T10:44:41.938Z,1.40
2017-05-15T10:47:07.800Z,1.40
2017-05-15T10:49:33.680Z,1.40
2017-05-15T10:51:59.615Z,1.20
2017-05-15T10:54:25.463Z,1.24
2017-05-15T10:56:51.319Z,1.28
2017-05-15T10:59:17.220Z,1.40
2017-05-15T11:01:43.083Z,1.28
2017-05-15T11:04:08.921Z,1.20
2017-05-15T11:06:34.791Z,1.84
2017-05-15T11:09:00.648Z,1.24
2017-05-15T11:11:26.523Z,1.32
2017-05-15T11:13:52.414Z,1.18
2017-05-15T11:16:18.270Z,1.24
2017-05-15T11:18:44.125Z,1.24
2017-05-15T11:21:09.974Z,1.04
2017-05-15T11:23:35.875Z,1.38
2017-05-15T11:26:01.764Z,1.20
2017-05-15T11:28:27.604Z,1.38
2017-05-15T11:30:53.477Z,1.38
2017-05-15T11:33:19.336Z,1.30
2017-05-15T11:35:45.178Z,1.50
2017-05-15T11:38:11.033Z,2.22
2017-05-15T11:40:36.909Z,1.26
2017-05-15T11:43:02.805Z,1.60
2017-05-15T11:45:28.648Z,1.36
2017-05-15T11:47:54.505Z,1.90
2017-05-15T11:50:20.365Z,1.74
2017-05-15T11:52:46.208Z,1.30
2017-05-15T11:55:12.846Z,1.70
2017-05-15T11:57:38.699Z,1.40
2017-05-15T12:00:04.550Z,1.52
2017-05-15T12:02:30.400Z,1.50
2017-05-15T12:04:57.036Z,1.80
2017-05-15T12:07:22.915Z,1.16
2017-05-15T12:09:48.760Z,1.28
2017-05-15T12:12:14.599Z,1.56
2017-05-15T12:14:40.488Z,1.30
2017-05-15T12:17:06.363Z,1.70
2017-05-15T12:19:32.374Z,1.38
2017-05-15T12:21:58.226Z,1.36
2017-05-15T12:24:24.106Z,1.42
2017-05-15T12:26:50.085Z,1.60
2017-05-15T12:29:15.965Z,1.36
2017-05-15T12:31:41.914Z,1.54
2017-05-15T12:34:07.829Z,1.56
2017-05-15T12:36:33.673Z,1.20
2017-05-15T12:38:59.539Z,1.70
2017-05-15T12:41:25.453Z,1.20
2017-05-15T12:43:51.833Z,1.40
2017-05-15T12:46:17.699Z,1.56
2017-05-15T12:48:44.394Z,1.10
2017-05-15T12:51:10.302Z,1.50
2017-05-15T12:53:36.173Z,1.34
2017-05-15T12:56:02.152Z,1.36
2017-05-15T12:58:28.049Z,1.46
2017-05-15T13:00:54.021Z,1.22
2017-05-15T13:03:20.182Z,1.50
2017-05-15T13:05:46.072Z,1.28
2017-05-15T13:08:11.921Z,1.54
2017-05-15T13:10:37.851Z,1.62
2017-05-15T13:13:03.709Z,1.30
2017-05-15T13:15:29.559Z,1.30
2017-05-15T13:17:55.511Z,1.88
2017-05-15T13:20:21.362Z,1.64
2017-05-15T13:22:47.219Z,1.66
2017-05-15T13:25:13.178Z,1.98
2017-05-15T13:27:39.070Z,1.54
2017-05-15T13:30:04.929Z,1.24
2017-05-15T13:32:30.846Z,1.70
2017-05-15T13:34:56.754Z,1.50
2017-05-15T13:37:22.627Z,1.10
2017-05-15T13:39:48.582Z,1.34
2017-05-15T13:42:15.941Z,1.50
2017-05-15T13:44:42.610Z,1.90
2017-05-15T13:47:08.574Z,1.40
2017-05-15T13:49:34.411Z,1.40
2017-05-15T13:52:00.342Z,1.50
2017-05-15T13:54:26.286Z,1.86
2017-05-15T13:56:52.169Z,1.42
2017-05-15T13:59:18.017Z,1.40
2017-05-15T14:01:44.044Z,1.38
2017-05-15T14:04:09.890Z,1.40
2017-05-15T14:06:35.764Z,1.52
2017-05-15T14:09:01.749Z,1.96
2017-05-15T14:11:27.573Z,1.48
2017-05-15T14:13:53.425Z,1.50
2017-05-15T14:16:19.422Z,1.72
2017-05-15T14:18:45.279Z,2.00
2017-05-15T14:21:11.176Z,1.36
2017-05-15T14:23:37.087Z,1.40
2017-05-15T14:26:02.938Z,1.80
2017-05-15T14:28:28.789Z,1.36
2017-05-15T14:30:54.862Z,1.48
2017-05-15T14:33:20.738Z,1.56
2017-05-15T14:35:46.651Z,1.24
2017-05-15T14:38:12.631Z,1.96
2017-05-15T14:40:38.493Z,1.70
2017-05-15T14:43:04.351Z,1.20
2017-05-15T14:45:30.539Z,1.40
2017-05-15T14:47:57.125Z,1.44
2017-05-15T14:52:59.623Z,1.38
2017-05-15T14:55:25.490Z,1.16
2017-05-15T14:57:51.401Z,1.40
2017-05-15T15:00:17.308Z,1.46
2017-05-15T15:02:43.175Z,1.52
2017-05-15T15:05:09.030Z,1.22
2017-05-15T15:07:34.938Z,1.64
2017-05-15T15:10:00.778Z,1.70
2017-05-15T15:12:26.629Z,1.44
2017-05-15T15:14:53.283Z,1.40
2017-05-15T15:17:19.901Z,1.22
2017-05-15T15:19:45.727Z,1.50
2017-05-15T15:22:11.586Z,1.18
2017-05-15T15:24:37.480Z,1.42
2017-05-15T15:27:03.386Z,1.08
2017-05-15T15:29:29.239Z,1.50
2017-05-15T15:31:55.107Z,1.10
2017-05-15T15:34:21.032Z,1.06
2017-05-15T15:36:46.952Z,1.24
2017-05-15T15:39:12.763Z,1.28
2017-05-15T15:41:38.798Z,1.18
2017-05-15T15:44:04.646Z,1.10
2017-05-15T15:46:31.242Z,1.28
2017-05-15T15:48:57.162Z,1.14
2017-05-15T15:51:23.058Z,1.06
2017-05-15T15:53:48.910Z,1.20
2017-05-15T15:56:14.894Z,1.08
2017-05-15T15:58:40.741Z,1.10
2017-05-15T16:01:06.638Z,1.38
2017-05-15T16:03:32.775Z,1.10
2017-05-15T16:05:58.670Z,1.10
2017-05-15T16:08:24.570Z,1.00
2017-05-15T16:10:51.297Z,1.06
2017-05-15T16:13:17.170Z,0.90
2017-05-15T16:15:43.077Z,1.20
2017-05-15T16:18:09.119Z,1.00
2017-05-15T16:20:34.974Z,1.00
2017-05-15T16:23:00.818Z,1.16
2017-05-15T16:25:27.615Z,0.98
2017-05-15T16:27:53.510Z,1.00
2017-05-15T16:30:19.481Z,1.12
2017-05-15T16:32:45.455Z,1.06
2017-05-15T16:35:11.431Z,1.00
2017-05-15T16:37:37.366Z,1.04
2017-05-15T16:40:03.298Z,1.06
2017-05-15T16:42:29.177Z,1.10
2017-05-15T16:44:55.191Z,0.90
2017-05-15T16:47:21.142Z,1.04
2017-05-15T16:49:47.098Z,1.30
2017-05-15T16:52:13.016Z,1.00
2017-05-15T16:54:38.863Z,1.00
2017-05-15T16:57:05.455Z,1.00
2017-05-15T16:59:31.335Z,1.20
2017-05-15T17:01:57.303Z,0.94
2017-05-15T17:04:23.294Z,1.18
2017-05-15T17:06:49.184Z,1.00
2017-05-15T17:09:15.497Z,1.00
2017-05-15T17:11:41.460Z,1.20
2017-05-15T17:14:07.670Z,1.10
2017-05-15T17:16:33.813Z,1.28
2017-05-15T17:18:59.978Z,1.28
2017-05-15T17:21:25.834Z,1.10
2017-05-15T17:23:52.018Z,1.52
2017-05-15T17:26:18.032Z,1.00
2017-05-15T17:28:44.186Z,1.08
2017-05-15T17:31:10.036Z,1.30
2017-05-15T17:33:36.026Z,1.02
2017-05-15T17:36:01.939Z,1.26
2017-05-15T17:38:27.839Z,1.40
2017-05-15T17:40:53.816Z,1.14
2017-05-15T17:43:19.766Z,1.24
2017-05-15T17:45:45.727Z,1.24
2017-05-15T17:48:11.717Z,1.22
2017-05-15T17:50:37.695Z,1.28
2017-05-15T17:53:03.605Z,1.12
2017-05-15T17:55:29.454Z,1.18
2017-05-15T17:57:55.402Z,1.20
2017-05-15T18:00:21.338Z,1.00
2017-05-15T18:02:47.195Z,1.06
2017-05-15T18:05:13.904Z,1.08
2017-05-15T18:07:39.827Z,1.18
2017-05-15T18:10:05.834Z,1.20
2017-05-15T18:12:31.733Z,1.10
2017-05-15T18:14:57.695Z,1.30
2017-05-15T18:17:23.566Z,1.00
2017-05-15T18:19:49.449Z,1.10
2017-05-15T18:22:15.382Z,1.20
2017-05-15T18:24:41.301Z,1.20
2017-05-15T18:27:07.250Z,1.06
2017-05-15T18:29:33.133Z,1.10
2017-05-15T18:31:58.991Z,1.10
2017-05-15T18:34:24.956Z,1.22
2017-05-15T18:36:50.863Z,1.12
2017-05-15T18:39:16.759Z,1.58
2017-05-15T18:41:42.831Z,1.38
2017-05-15T18:44:08.793Z,1.20
2017-05-15T18:46:35.416Z,1.16
2017-05-15T18:49:02.098Z,1.10
2017-05-15T18:51:27.955Z,1.50
2017-05-15T18:53:53.819Z,1.08
2017-05-15T18:56:19.788Z,1.20
2017-05-15T18:58:45.634Z,1.30
2017-05-15T19:01:11.544Z,1.16
2017-05-15T19:03:37.390Z,1.20
2017-05-15T19:06:03.394Z,1.20
2017-05-15T19:08:29.323Z,1.10
2017-05-15T19:10:55.471Z,1.20
2017-05-15T19:13:21.318Z,1.04
2017-05-15T19:15:47.626Z,1.00
2017-05-15T19:18:13.846Z,1.02
2017-05-15T19:20:40.470Z,1.10
2017-05-15T19:23:06.586Z,1.10
2017-05-15T19:25:32.434Z,1.18
2017-05-15T19:27:58.362Z,1.30
2017-05-15T19:30:24.303Z,1.20
2017-05-15T19:32:50.460Z,1.00
2017-05-15T19:35:16.668Z,1.30
2017-05-15T19:37:42.625Z,1.20
2017-05-15T19:40:08.662Z,1.16
2017-05-15T19:42:34.577Z,1.20
2017-05-15T19:45:00.562Z,1.58
2017-05-15T19:47:26.627Z,1.32
2017-05-15T19:49:52.482Z,1.86
2017-05-15T19:52:18.596Z,1.66
2017-05-15T19:54:45.334Z,1.70
2017-05-15T19:57:12.199Z,1.74
2017-05-15T19:59:38.932Z,2.06
2017-05-15T20:02:05.037Z,1.54
2017-05-15T20:04:30.936Z,1.82
2017-05-15T20:06:56.902Z,1.54
2017-05-15T20:09:22.838Z,1.80
2017-05-15T20:11:48.803Z,1.58
2017-05-15T20:14:14.671Z,1.60
2017-05-15T20:16:40.629Z,1.50
2017-05-15T20:19:06.473Z,1.52
2017-05-15T20:21:32.546Z,1.40
2017-05-15T20:23:58.493Z,1.58
2017-05-15T20:26:24.445Z,1.50
2017-05-15T20:28:50.323Z,1.62
2017-05-15T20:31:16.182Z,1.94
2017-05-15T20:33:42.235Z,1.88
2017-05-15T20:36:08.173Z,1.56
2017-05-15T20:38:34.553Z,1.52
2017-05-15T20:41:00.455Z,1.50
2017-05-15T20:43:26.519Z,1.56
2017-05-15T20:45:52.943Z,1.50
2017-05-15T20:48:18.752Z,1.68
2017-05-15T20:50:44.650Z,1.64
2017-05-15T20:53:10.614Z,1.90
2017-05-15T20:55:36.440Z,1.50
2017-05-15T20:58:02.470Z,1.54
2017-05-15T21:00:28.424Z,1.44
2017-05-15T21:02:54.629Z,1.98
2017-05-15T21:05:20.538Z,1.74
2017-05-15T21:07:46.482Z,1.30
2017-05-15T21:10:12.370Z,1.44
2017-05-15T21:12:38.481Z,1.68
2017-05-15T21:15:04.342Z,1.50
2017-05-15T21:17:30.955Z,1.58
2017-05-15T21:19:56.983Z,1.40
2017-05-15T21:22:22.842Z,1.38
2017-05-15T21:24:49.123Z,1.52
2017-05-15T21:27:14.932Z,1.32
2017-05-15T21:29:40.790Z,1.96
2017-05-15T21:32:07.375Z,1.58
2017-05-15T21:34:33.220Z,1.76
2017-05-15T21:36:59.231Z,1.82
2017-05-15T21:39:25.126Z,1.88
2017-05-15T21:41:50.979Z,1.60
2017-05-15T21:44:17.030Z,1.90
2017-05-15T21:46:42.881Z,1.88
2017-05-15T21:49:08.801Z,1.86
2017-05-15T21:51:34.966Z,1.80
2017-05-15T21:54:01.387Z,1.94
2017-05-15T21:56:27.283Z,1.90
2017-05-15T21:58:53.174Z,1.74
2017-05-15T22:01:19.818Z,1.60
2017-05-15T22:03:46.432Z,1.90
2017-05-15T22:06:12.461Z,1.70
2017-05-15T22:08:38.398Z,1.72
2017-05-15T22:11:04.290Z,1.70
2017-05-15T22:13:30.226Z,1.60
2017-05-15T22:15:56.090Z,1.44
2017-05-15T22:18:21.950Z,1.74
2017-05-15T22:20:47.879Z,1.36
2017-05-15T22:23:13.736Z,1.58
2017-05-15T22:25:39.627Z,1.68
2017-05-15T22:28:05.553Z,1.50
2017-05-15T22:30:31.410Z,1.52
2017-05-15T22:32:58.094Z,1.38
2017-05-15T22:35:23.935Z,1.42
2017-05-15T22:37:49.823Z,1.60
2017-05-15T22:40:15.702Z,1.40
2017-05-15T22:42:41.562Z,1.40
2017-05-15T22:45:07.569Z,1.40
2017-05-15T22:47:33.506Z,1.66
2017-05-15T22:49:59.444Z,1.50
2017-05-15T22:52:25.997Z,1.38
2017-05-15T22:54:51.879Z,1.40
2017-05-15T22:57:17.863Z,1.48
2017-05-15T22:59:43.687Z,1.30
2017-05-15T23:02:09.622Z,1.50
2017-05-15T23:04:35.498Z,1.26
2017-05-15T23:07:01.386Z,1.46
2017-05-15T23:09:27.399Z,1.20
2017-05-15T23:11:53.307Z,1.40
2017-05-15T23:14:19.267Z,1.40
2017-05-15T23:16:45.119Z,1.62
2017-05-15T23:19:11.053Z,1.40
2017-05-15T23:21:37.647Z,1.50
2017-05-15T23:24:03.592Z,1.20
2017-05-15T23:26:29.518Z,1.40
2017-05-15T23:28:55.423Z,1.24
2017-05-15T23:31:21.391Z,1.46
2017-05-15T23:33:47.350Z,1.42
2017-05-15T23:36:13.209Z,1.30
2017-05-15T23:38:39.131Z,1.36
2017-05-15T23:41:05.044Z,1.42
2017-05-15T23:43:30.899Z,1.46
2017-05-15T23:45:57.507Z,1.20
2017-05-15T23:48:23.395Z,1.46
2017-05-15T23:50:49.247Z,1.20
2017-05-15T23:53:15.126Z,1.28
2017-05-15T23:55:41.084Z,1.24
2017-05-15T23:58:06.927Z,1.20
